sensor_id;sensor_type;location;lat;lon;timestamp;P1;durP1;ratioP1;P2;durP2;ratioP2
13795;SDS011;40911;51.552;9.874;2023-01-23T00:00:17;16.35;;;11.38;;
13795;SDS011;40911;51.552;9.874;2023-01-23T00:02:39;15.98;;;10.82;;
13795;SDS011;40911;51.552;9.874;2023-01-23T00:05:00;15.43;;;10.73;;
13795;SDS011;40911;51.552;9.874;2023-01-23T00:07:22;14.05;;;10.65;;
13795;SDS011;40911;51.552;9.874;2023-01-23T00:09:44;17.58;;;12.20;;
13795;SDS011;40911;51.552;9.874;2023-01-23T00:12:05;18.02;;;11.35;;
13795;SDS011;40911;51.552;9.874;2023-01-23T00:14:29;17.60;;;10.88;;
13795;SDS011;40911;51.552;9.874;2023-01-23T00:16:50;17.88;;;11.90;;
13795;SDS011;40911;51.552;9.874;2023-01-23T00:19:12;17.88;;;12.50;;
13795;SDS011;40911;51.552;9.874;2023-01-23T00:21:33;16.52;;;11.52;;
13795;SDS011;40911;51.552;9.874;2023-01-23T00:23:56;16.17;;;11.25;;
13795;SDS011;40911;51.552;9.874;2023-01-23T00:26:21;16.88;;;11.20;;
13795;SDS011;40911;51.552;9.874;2023-01-23T00:28:44;16.58;;;11.80;;
13795;SDS011;40911;51.552;9.874;2023-01-23T00:37:42;17.98;;;11.27;;
13795;SDS011;40911;51.552;9.874;2023-01-23T00:40:04;18.40;;;11.50;;
13795;SDS011;40911;51.552;9.874;2023-01-23T00:42:26;17.77;;;11.57;;
13795;SDS011;40911;51.552;9.874;2023-01-23T00:44:48;19.17;;;11.77;;
13795;SDS011;40911;51.552;9.874;2023-01-23T00:47:09;17.33;;;12.05;;
13795;SDS011;40911;51.552;9.874;2023-01-23T00:49:31;16.80;;;11.60;;
13795;SDS011;40911;51.552;9.874;2023-01-23T00:51:53;19.65;;;12.05;;
13795;SDS011;40911;51.552;9.874;2023-01-23T00:54:16;19.02;;;11.25;;
13795;SDS011;40911;51.552;9.874;2023-01-23T00:56:39;18.42;;;12.07;;
13795;SDS011;40911;51.552;9.874;2023-01-23T00:59:00;19.35;;;12.13;;
13795;SDS011;40911;51.552;9.874;2023-01-23T01:01:22;19.13;;;12.57;;
13795;SDS011;40911;51.552;9.874;2023-01-23T01:03:44;17.95;;;12.23;;
13795;SDS011;40911;51.552;9.874;2023-01-23T01:06:06;16.52;;;11.27;;
13795;SDS011;40911;51.552;9.874;2023-01-23T01:08:28;16.35;;;11.18;;
13795;SDS011;40911;51.552;9.874;2023-01-23T01:10:51;18.02;;;12.50;;
13795;SDS011;40911;51.552;9.874;2023-01-23T01:13:13;19.95;;;12.23;;
13795;SDS011;40911;51.552;9.874;2023-01-23T01:15:38;18.60;;;11.75;;
13795;SDS011;40911;51.552;9.874;2023-01-23T01:18:00;17.38;;;11.50;;
13795;SDS011;40911;51.552;9.874;2023-01-23T01:20:22;20.25;;;12.23;;
13795;SDS011;40911;51.552;9.874;2023-01-23T01:22:45;20.35;;;12.82;;
13795;SDS011;40911;51.552;9.874;2023-01-23T01:25:07;18.67;;;11.57;;
13795;SDS011;40911;51.552;9.874;2023-01-23T01:27:30;17.73;;;12.18;;
13795;SDS011;40911;51.552;9.874;2023-01-23T01:29:52;17.88;;;10.82;;
13795;SDS011;40911;51.552;9.874;2023-01-23T01:32:13;18.38;;;11.48;;
13795;SDS011;40911;51.552;9.874;2023-01-23T01:36:56;19.85;;;11.63;;
13795;SDS011;40911;51.552;9.874;2023-01-23T01:39:18;24.17;;;12.70;;
13795;SDS011;40911;51.552;9.874;2023-01-23T01:41:40;20.05;;;12.90;;
13795;SDS011;40911;51.552;9.874;2023-01-23T01:44:03;19.55;;;12.15;;
13795;SDS011;40911;51.552;9.874;2023-01-23T01:46:25;22.38;;;12.50;;
13795;SDS011;40911;51.552;9.874;2023-01-23T01:48:54;20.38;;;12.30;;
13795;SDS011;40911;51.552;9.874;2023-01-23T01:51:23;22.20;;;12.93;;
13795;SDS011;40911;51.552;9.874;2023-01-23T01:53:49;22.90;;;13.90;;
13795;SDS011;40911;51.552;9.874;2023-01-23T01:56:16;20.60;;;13.13;;
13795;SDS011;40911;51.552;9.874;2023-01-23T01:58:39;20.90;;;12.70;;
13795;SDS011;40911;51.552;9.874;2023-01-23T02:01:05;23.38;;;14.10;;
13795;SDS011;40911;51.552;9.874;2023-01-23T02:03:26;20.75;;;13.13;;
13795;SDS011;40911;51.552;9.874;2023-01-23T02:05:48;23.65;;;13.43;;
13795;SDS011;40911;51.552;9.874;2023-01-23T02:08:11;23.60;;;13.40;;
13795;SDS011;40911;51.552;9.874;2023-01-23T02:10:36;23.75;;;12.85;;
13795;SDS011;40911;51.552;9.874;2023-01-23T02:13:15;22.38;;;12.63;;
13795;SDS011;40911;51.552;9.874;2023-01-23T02:15:43;25.17;;;14.05;;
13795;SDS011;40911;51.552;9.874;2023-01-23T02:18:07;22.38;;;13.85;;
13795;SDS011;40911;51.552;9.874;2023-01-23T02:20:28;25.63;;;13.07;;
13795;SDS011;40911;51.552;9.874;2023-01-23T02:22:51;23.10;;;14.13;;
13795;SDS011;40911;51.552;9.874;2023-01-23T02:25:21;23.65;;;13.23;;
13795;SDS011;40911;51.552;9.874;2023-01-23T02:27:52;24.33;;;13.00;;
13795;SDS011;40911;51.552;9.874;2023-01-23T02:30:14;23.52;;;13.13;;
13795;SDS011;40911;51.552;9.874;2023-01-23T02:32:37;24.23;;;13.73;;
13795;SDS011;40911;51.552;9.874;2023-01-23T02:34:59;23.10;;;13.07;;
13795;SDS011;40911;51.552;9.874;2023-01-23T02:37:25;24.65;;;14.00;;
13795;SDS011;40911;51.552;9.874;2023-01-23T02:39:52;25.25;;;13.55;;
13795;SDS011;40911;51.552;9.874;2023-01-23T02:42:14;24.42;;;13.25;;
13795;SDS011;40911;51.552;9.874;2023-01-23T02:46:59;25.95;;;14.07;;
13795;SDS011;40911;51.552;9.874;2023-01-23T02:49:22;27.98;;;14.20;;
13795;SDS011;40911;51.552;9.874;2023-01-23T02:51:44;23.75;;;13.27;;
13795;SDS011;40911;51.552;9.874;2023-01-23T02:54:06;23.20;;;13.30;;
13795;SDS011;40911;51.552;9.874;2023-01-23T02:56:27;23.88;;;13.98;;
13795;SDS011;40911;51.552;9.874;2023-01-23T02:58:49;26.05;;;14.50;;
13795;SDS011;40911;51.552;9.874;2023-01-23T03:01:30;28.75;;;14.88;;
13795;SDS011;40911;51.552;9.874;2023-01-23T03:03:54;24.17;;;14.02;;
13795;SDS011;40911;51.552;9.874;2023-01-23T03:06:16;28.10;;;14.85;;
13795;SDS011;40911;51.552;9.874;2023-01-23T03:11:06;22.23;;;13.63;;
13795;SDS011;40911;51.552;9.874;2023-01-23T03:13:28;26.08;;;14.32;;
13795;SDS011;40911;51.552;9.874;2023-01-23T03:15:49;25.08;;;14.05;;
13795;SDS011;40911;51.552;9.874;2023-01-23T03:18:14;25.23;;;13.85;;
13795;SDS011;40911;51.552;9.874;2023-01-23T03:20:37;30.42;;;14.52;;
13795;SDS011;40911;51.552;9.874;2023-01-23T03:22:59;24.88;;;14.02;;
13795;SDS011;40911;51.552;9.874;2023-01-23T03:25:20;24.35;;;13.68;;
13795;SDS011;40911;51.552;9.874;2023-01-23T03:30:04;25.17;;;13.13;;
13795;SDS011;40911;51.552;9.874;2023-01-23T03:32:35;24.53;;;14.10;;
13795;SDS011;40911;51.552;9.874;2023-01-23T03:34:59;23.15;;;13.85;;
13795;SDS011;40911;51.552;9.874;2023-01-23T03:37:20;24.67;;;13.80;;
13795;SDS011;40911;51.552;9.874;2023-01-23T03:39:42;22.65;;;13.48;;
13795;SDS011;40911;51.552;9.874;2023-01-23T03:42:23;23.70;;;13.32;;
13795;SDS011;40911;51.552;9.874;2023-01-23T03:47:06;24.30;;;13.68;;
13795;SDS011;40911;51.552;9.874;2023-01-23T03:51:51;22.65;;;13.23;;
13795;SDS011;40911;51.552;9.874;2023-01-23T03:54:13;23.38;;;13.50;;
13795;SDS011;40911;51.552;9.874;2023-01-23T03:56:34;21.25;;;12.98;;
13795;SDS011;40911;51.552;9.874;2023-01-23T04:01:18;19.70;;;12.95;;
13795;SDS011;40911;51.552;9.874;2023-01-23T04:03:39;21.60;;;12.98;;
13795;SDS011;40911;51.552;9.874;2023-01-23T04:06:01;24.35;;;13.13;;
13795;SDS011;40911;51.552;9.874;2023-01-23T04:10:45;21.33;;;12.30;;
13795;SDS011;40911;51.552;9.874;2023-01-23T04:13:07;23.50;;;12.60;;
13795;SDS011;40911;51.552;9.874;2023-01-23T04:15:30;22.48;;;13.32;;
13795;SDS011;40911;51.552;9.874;2023-01-23T04:17:52;24.45;;;12.45;;
13795;SDS011;40911;51.552;9.874;2023-01-23T04:20:14;24.73;;;13.93;;
13795;SDS011;40911;51.552;9.874;2023-01-23T04:22:36;21.42;;;12.75;;
13795;SDS011;40911;51.552;9.874;2023-01-23T04:24:59;23.00;;;13.07;;
13795;SDS011;40911;51.552;9.874;2023-01-23T04:27:20;21.85;;;12.15;;
13795;SDS011;40911;51.552;9.874;2023-01-23T04:29:42;23.02;;;12.43;;
13795;SDS011;40911;51.552;9.874;2023-01-23T04:32:03;18.83;;;12.35;;
13795;SDS011;40911;51.552;9.874;2023-01-23T04:34:27;21.13;;;12.15;;
13795;SDS011;40911;51.552;9.874;2023-01-23T04:36:49;20.80;;;12.93;;
13795;SDS011;40911;51.552;9.874;2023-01-23T04:39:10;18.85;;;11.70;;
13795;SDS011;40911;51.552;9.874;2023-01-23T04:41:33;21.42;;;13.13;;
13795;SDS011;40911;51.552;9.874;2023-01-23T04:43:55;21.55;;;12.07;;
13795;SDS011;40911;51.552;9.874;2023-01-23T04:46:37;20.50;;;11.98;;
13795;SDS011;40911;51.552;9.874;2023-01-23T04:48:59;18.27;;;11.82;;
13795;SDS011;40911;51.552;9.874;2023-01-23T04:51:20;18.75;;;12.40;;
13795;SDS011;40911;51.552;9.874;2023-01-23T04:53:42;18.00;;;11.23;;
13795;SDS011;40911;51.552;9.874;2023-01-23T04:56:04;19.42;;;11.57;;
13795;SDS011;40911;51.552;9.874;2023-01-23T04:58:28;19.83;;;12.40;;
13795;SDS011;40911;51.552;9.874;2023-01-23T05:00:50;18.45;;;11.55;;
13795;SDS011;40911;51.552;9.874;2023-01-23T05:03:12;20.75;;;12.55;;
13795;SDS011;40911;51.552;9.874;2023-01-23T05:05:34;22.02;;;12.15;;
13795;SDS011;40911;51.552;9.874;2023-01-23T05:07:55;19.02;;;11.60;;
13795;SDS011;40911;51.552;9.874;2023-01-23T05:10:17;18.40;;;11.30;;
13795;SDS011;40911;51.552;9.874;2023-01-23T05:15:02;20.58;;;11.38;;
13795;SDS011;40911;51.552;9.874;2023-01-23T05:17:24;16.98;;;11.15;;
13795;SDS011;40911;51.552;9.874;2023-01-23T05:19:46;20.42;;;11.77;;
13795;SDS011;40911;51.552;9.874;2023-01-23T05:22:07;19.38;;;11.75;;
13795;SDS011;40911;51.552;9.874;2023-01-23T05:24:29;17.67;;;10.85;;
13795;SDS011;40911;51.552;9.874;2023-01-23T05:26:51;18.05;;;11.63;;
13795;SDS011;40911;51.552;9.874;2023-01-23T05:29:12;18.15;;;10.95;;
13795;SDS011;40911;51.552;9.874;2023-01-23T05:31:35;17.80;;;11.52;;
13795;SDS011;40911;51.552;9.874;2023-01-23T05:33:57;17.08;;;11.15;;
13795;SDS011;40911;51.552;9.874;2023-01-23T05:36:18;16.67;;;10.82;;
13795;SDS011;40911;51.552;9.874;2023-01-23T05:38:40;18.90;;;11.52;;
13795;SDS011;40911;51.552;9.874;2023-01-23T05:41:02;17.15;;;11.88;;
13795;SDS011;40911;51.552;9.874;2023-01-23T05:43:25;18.05;;;11.65;;
13795;SDS011;40911;51.552;9.874;2023-01-23T05:45:46;24.50;;;13.80;;
13795;SDS011;40911;51.552;9.874;2023-01-23T05:48:09;25.08;;;14.52;;
13795;SDS011;40911;51.552;9.874;2023-01-23T05:50:31;23.92;;;13.70;;
13795;SDS011;40911;51.552;9.874;2023-01-23T05:52:52;22.85;;;12.82;;
13795;SDS011;40911;51.552;9.874;2023-01-23T05:55:14;21.45;;;12.60;;
13795;SDS011;40911;51.552;9.874;2023-01-23T05:57:36;19.88;;;12.65;;
13795;SDS011;40911;51.552;9.874;2023-01-23T05:59:58;19.58;;;12.55;;
13795;SDS011;40911;51.552;9.874;2023-01-23T06:02:19;19.52;;;11.55;;
13795;SDS011;40911;51.552;9.874;2023-01-23T06:04:42;17.73;;;11.40;;
13795;SDS011;40911;51.552;9.874;2023-01-23T06:07:07;18.10;;;10.60;;
13795;SDS011;40911;51.552;9.874;2023-01-23T06:09:32;18.77;;;10.23;;
13795;SDS011;40911;51.552;9.874;2023-01-23T06:11:54;15.25;;;10.88;;
13795;SDS011;40911;51.552;9.874;2023-01-23T06:14:15;16.95;;;10.80;;
13795;SDS011;40911;51.552;9.874;2023-01-23T06:16:37;14.13;;;9.88;;
13795;SDS011;40911;51.552;9.874;2023-01-23T06:18:59;16.38;;;10.52;;
13795;SDS011;40911;51.552;9.874;2023-01-23T06:21:22;17.13;;;10.38;;
13795;SDS011;40911;51.552;9.874;2023-01-23T06:23:44;16.10;;;10.27;;
13795;SDS011;40911;51.552;9.874;2023-01-23T06:26:06;16.27;;;10.20;;
13795;SDS011;40911;51.552;9.874;2023-01-23T06:28:28;17.33;;;10.77;;
13795;SDS011;40911;51.552;9.874;2023-01-23T06:33:11;14.20;;;9.98;;
13795;SDS011;40911;51.552;9.874;2023-01-23T06:37:55;15.30;;;10.20;;
13795;SDS011;40911;51.552;9.874;2023-01-23T06:40:17;15.13;;;10.32;;
13795;SDS011;40911;51.552;9.874;2023-01-23T06:42:39;17.73;;;10.60;;
13795;SDS011;40911;51.552;9.874;2023-01-23T06:45:01;15.75;;;10.70;;
13795;SDS011;40911;51.552;9.874;2023-01-23T06:47:23;15.85;;;10.30;;
13795;SDS011;40911;51.552;9.874;2023-01-23T06:49:44;17.70;;;10.63;;
13795;SDS011;40911;51.552;9.874;2023-01-23T06:52:06;16.25;;;10.63;;
13795;SDS011;40911;51.552;9.874;2023-01-23T06:54:29;15.20;;;10.68;;
13795;SDS011;40911;51.552;9.874;2023-01-23T06:56:51;18.45;;;10.45;;
13795;SDS011;40911;51.552;9.874;2023-01-23T06:59:12;15.82;;;10.10;;
13795;SDS011;40911;51.552;9.874;2023-01-23T07:01:34;16.73;;;10.43;;
13795;SDS011;40911;51.552;9.874;2023-01-23T07:03:56;12.82;;;9.38;;
13795;SDS011;40911;51.552;9.874;2023-01-23T07:06:17;16.35;;;10.07;;
13795;SDS011;40911;51.552;9.874;2023-01-23T07:08:39;16.40;;;10.60;;
13795;SDS011;40911;51.552;9.874;2023-01-23T07:11:02;21.02;;;10.65;;
13795;SDS011;40911;51.552;9.874;2023-01-23T07:13:25;17.30;;;10.38;;
13795;SDS011;40911;51.552;9.874;2023-01-23T07:15:46;14.88;;;10.20;;
13795;SDS011;40911;51.552;9.874;2023-01-23T07:18:08;16.70;;;11.02;;
13795;SDS011;40911;51.552;9.874;2023-01-23T07:20:30;15.80;;;9.90;;
13795;SDS011;40911;51.552;9.874;2023-01-23T07:22:51;17.80;;;10.10;;
13795;SDS011;40911;51.552;9.874;2023-01-23T07:25:13;17.30;;;10.65;;
13795;SDS011;40911;51.552;9.874;2023-01-23T07:27:36;15.50;;;10.48;;
13795;SDS011;40911;51.552;9.874;2023-01-23T07:29:58;17.83;;;10.68;;
13795;SDS011;40911;51.552;9.874;2023-01-23T07:32:20;18.75;;;10.55;;
13795;SDS011;40911;51.552;9.874;2023-01-23T07:34:41;18.65;;;10.93;;
13795;SDS011;40911;51.552;9.874;2023-01-23T07:37:03;16.83;;;10.80;;
13795;SDS011;40911;51.552;9.874;2023-01-23T07:39:24;18.15;;;10.57;;
13795;SDS011;40911;51.552;9.874;2023-01-23T07:41:46;17.90;;;11.00;;
13795;SDS011;40911;51.552;9.874;2023-01-23T07:44:10;17.90;;;11.07;;
13795;SDS011;40911;51.552;9.874;2023-01-23T07:46:36;19.67;;;10.10;;
13795;SDS011;40911;51.552;9.874;2023-01-23T07:48:58;18.30;;;10.93;;
13795;SDS011;40911;51.552;9.874;2023-01-23T07:51:19;17.35;;;10.02;;
13795;SDS011;40911;51.552;9.874;2023-01-23T07:53:41;19.05;;;11.07;;
13795;SDS011;40911;51.552;9.874;2023-01-23T07:56:03;18.80;;;10.88;;
13795;SDS011;40911;51.552;9.874;2023-01-23T07:58:25;20.83;;;11.40;;
13795;SDS011;40911;51.552;9.874;2023-01-23T08:00:48;20.73;;;11.35;;
13795;SDS011;40911;51.552;9.874;2023-01-23T08:03:09;20.38;;;10.95;;
13795;SDS011;40911;51.552;9.874;2023-01-23T08:05:31;17.55;;;10.63;;
13795;SDS011;40911;51.552;9.874;2023-01-23T08:07:53;20.55;;;11.40;;
13795;SDS011;40911;51.552;9.874;2023-01-23T08:10:15;19.92;;;11.15;;
13795;SDS011;40911;51.552;9.874;2023-01-23T08:12:37;23.55;;;11.63;;
13795;SDS011;40911;51.552;9.874;2023-01-23T08:14:58;23.25;;;12.55;;
13795;SDS011;40911;51.552;9.874;2023-01-23T08:17:21;18.63;;;11.75;;
13795;SDS011;40911;51.552;9.874;2023-01-23T08:19:43;18.95;;;11.35;;
13795;SDS011;40911;51.552;9.874;2023-01-23T08:22:04;20.30;;;11.65;;
13795;SDS011;40911;51.552;9.874;2023-01-23T08:24:26;20.23;;;12.20;;
13795;SDS011;40911;51.552;9.874;2023-01-23T08:26:48;19.90;;;12.00;;
13795;SDS011;40911;51.552;9.874;2023-01-23T08:29:10;19.55;;;11.75;;
13795;SDS011;40911;51.552;9.874;2023-01-23T08:31:32;22.30;;;12.90;;
13795;SDS011;40911;51.552;9.874;2023-01-23T08:33:56;22.30;;;12.07;;
13795;SDS011;40911;51.552;9.874;2023-01-23T08:36:18;23.08;;;12.82;;
13795;SDS011;40911;51.552;9.874;2023-01-23T08:41:01;22.98;;;12.68;;
13795;SDS011;40911;51.552;9.874;2023-01-23T08:43:24;25.15;;;13.05;;
13795;SDS011;40911;51.552;9.874;2023-01-23T08:45:46;26.58;;;13.35;;
13795;SDS011;40911;51.552;9.874;2023-01-23T08:48:09;20.00;;;12.50;;
13795;SDS011;40911;51.552;9.874;2023-01-23T08:50:33;23.45;;;12.80;;
13795;SDS011;40911;51.552;9.874;2023-01-23T08:52:55;21.65;;;12.55;;
13795;SDS011;40911;51.552;9.874;2023-01-23T08:55:16;21.30;;;12.15;;
13795;SDS011;40911;51.552;9.874;2023-01-23T08:57:38;23.77;;;12.82;;
13795;SDS011;40911;51.552;9.874;2023-01-23T08:59:59;23.80;;;13.40;;
13795;SDS011;40911;51.552;9.874;2023-01-23T09:02:21;23.25;;;12.77;;
13795;SDS011;40911;51.552;9.874;2023-01-23T09:04:42;23.65;;;13.00;;
13795;SDS011;40911;51.552;9.874;2023-01-23T09:07:06;23.60;;;13.45;;
13795;SDS011;40911;51.552;9.874;2023-01-23T09:09:28;27.52;;;13.88;;
13795;SDS011;40911;51.552;9.874;2023-01-23T09:14:11;28.05;;;15.27;;
13795;SDS011;40911;51.552;9.874;2023-01-23T09:16:33;33.00;;;16.17;;
13795;SDS011;40911;51.552;9.874;2023-01-23T09:18:54;28.60;;;15.48;;
13795;SDS011;40911;51.552;9.874;2023-01-23T09:21:16;22.65;;;14.05;;
13795;SDS011;40911;51.552;9.874;2023-01-23T09:26:04;23.42;;;12.93;;
13795;SDS011;40911;51.552;9.874;2023-01-23T09:28:28;23.98;;;14.13;;
13795;SDS011;40911;51.552;9.874;2023-01-23T09:30:49;26.52;;;14.65;;
13795;SDS011;40911;51.552;9.874;2023-01-23T09:33:11;27.30;;;14.50;;
13795;SDS011;40911;51.552;9.874;2023-01-23T09:35:33;24.27;;;13.70;;
13795;SDS011;40911;51.552;9.874;2023-01-23T09:37:55;26.00;;;13.57;;
13795;SDS011;40911;51.552;9.874;2023-01-23T09:40:22;28.13;;;14.40;;
13795;SDS011;40911;51.552;9.874;2023-01-23T09:42:44;29.02;;;14.20;;
13795;SDS011;40911;51.552;9.874;2023-01-23T09:45:09;25.25;;;14.40;;
13795;SDS011;40911;51.552;9.874;2023-01-23T09:47:37;26.33;;;14.55;;
13795;SDS011;40911;51.552;9.874;2023-01-23T09:50:05;24.65;;;13.77;;
13795;SDS011;40911;51.552;9.874;2023-01-23T09:52:32;23.92;;;14.05;;
13795;SDS011;40911;51.552;9.874;2023-01-23T09:54:57;23.02;;;13.55;;
13795;SDS011;40911;51.552;9.874;2023-01-23T09:57:27;23.88;;;13.68;;
13795;SDS011;40911;51.552;9.874;2023-01-23T09:59:58;24.55;;;14.65;;
13795;SDS011;40911;51.552;9.874;2023-01-23T10:02:25;24.00;;;13.70;;
13795;SDS011;40911;51.552;9.874;2023-01-23T10:04:48;25.38;;;13.00;;
13795;SDS011;40911;51.552;9.874;2023-01-23T10:07:15;25.90;;;13.13;;
13795;SDS011;40911;51.552;9.874;2023-01-23T10:09:50;25.55;;;14.27;;
13795;SDS011;40911;51.552;9.874;2023-01-23T10:12:27;23.85;;;13.23;;
13795;SDS011;40911;51.552;9.874;2023-01-23T10:15:03;24.52;;;13.35;;
13795;SDS011;40911;51.552;9.874;2023-01-23T10:17:38;24.13;;;13.70;;
13795;SDS011;40911;51.552;9.874;2023-01-23T10:20:15;24.48;;;13.45;;
13795;SDS011;40911;51.552;9.874;2023-01-23T10:22:50;23.63;;;13.52;;
13795;SDS011;40911;51.552;9.874;2023-01-23T10:25:25;24.85;;;14.15;;
13795;SDS011;40911;51.552;9.874;2023-01-23T10:27:50;26.33;;;14.15;;
13795;SDS011;40911;51.552;9.874;2023-01-23T10:30:23;25.00;;;13.93;;
13795;SDS011;40911;51.552;9.874;2023-01-23T10:32:49;26.60;;;15.07;;
13795;SDS011;40911;51.552;9.874;2023-01-23T10:35:14;26.35;;;14.90;;
13795;SDS011;40911;51.552;9.874;2023-01-23T10:37:42;29.33;;;15.32;;
13795;SDS011;40911;51.552;9.874;2023-01-23T10:40:10;24.60;;;14.27;;
13795;SDS011;40911;51.552;9.874;2023-01-23T10:42:34;25.10;;;14.32;;
13795;SDS011;40911;51.552;9.874;2023-01-23T10:44:57;26.55;;;15.20;;
13795;SDS011;40911;51.552;9.874;2023-01-23T10:47:20;23.70;;;13.73;;
13795;SDS011;40911;51.552;9.874;2023-01-23T10:49:47;25.92;;;14.48;;
13795;SDS011;40911;51.552;9.874;2023-01-23T10:52:22;24.42;;;13.77;;
13795;SDS011;40911;51.552;9.874;2023-01-23T10:54:50;27.60;;;13.68;;
13795;SDS011;40911;51.552;9.874;2023-01-23T10:57:18;24.52;;;14.65;;
13795;SDS011;40911;51.552;9.874;2023-01-23T10:59:50;27.98;;;13.90;;
13795;SDS011;40911;51.552;9.874;2023-01-23T11:02:18;26.60;;;14.07;;
13795;SDS011;40911;51.552;9.874;2023-01-23T11:04:42;24.95;;;14.55;;
13795;SDS011;40911;51.552;9.874;2023-01-23T11:07:06;27.75;;;14.70;;
13795;SDS011;40911;51.552;9.874;2023-01-23T11:09:31;25.42;;;14.85;;
13795;SDS011;40911;51.552;9.874;2023-01-23T11:12:00;29.38;;;15.27;;
13795;SDS011;40911;51.552;9.874;2023-01-23T11:14:23;26.13;;;14.25;;
13795;SDS011;40911;51.552;9.874;2023-01-23T11:16:45;27.65;;;15.25;;
13795;SDS011;40911;51.552;9.874;2023-01-23T11:19:14;27.60;;;14.75;;
13795;SDS011;40911;51.552;9.874;2023-01-23T11:21:49;26.92;;;15.02;;
13795;SDS011;40911;51.552;9.874;2023-01-23T11:24:16;27.00;;;14.35;;
13795;SDS011;40911;51.552;9.874;2023-01-23T11:26:40;24.30;;;14.32;;
13795;SDS011;40911;51.552;9.874;2023-01-23T11:29:07;28.40;;;15.07;;
13795;SDS011;40911;51.552;9.874;2023-01-23T11:31:40;24.52;;;14.63;;
13795;SDS011;40911;51.552;9.874;2023-01-23T11:34:03;25.15;;;14.48;;
13795;SDS011;40911;51.552;9.874;2023-01-23T11:36:39;27.38;;;15.05;;
13795;SDS011;40911;51.552;9.874;2023-01-23T11:39:08;26.70;;;15.18;;
13795;SDS011;40911;51.552;9.874;2023-01-23T11:41:38;27.23;;;14.98;;
13795;SDS011;40911;51.552;9.874;2023-01-23T11:46:28;27.65;;;14.82;;
13795;SDS011;40911;51.552;9.874;2023-01-23T11:49:04;29.65;;;15.18;;
13795;SDS011;40911;51.552;9.874;2023-01-23T11:51:41;24.42;;;14.15;;
13795;SDS011;40911;51.552;9.874;2023-01-23T11:54:12;26.77;;;14.57;;
13795;SDS011;40911;51.552;9.874;2023-01-23T11:56:48;27.98;;;15.52;;
13795;SDS011;40911;51.552;9.874;2023-01-23T11:59:19;20.67;;;13.23;;
13795;SDS011;40911;51.552;9.874;2023-01-23T12:02:02;23.65;;;13.48;;
13795;SDS011;40911;51.552;9.874;2023-01-23T12:05:02;23.88;;;13.73;;
13795;SDS011;40911;51.552;9.874;2023-01-23T12:07:36;20.98;;;13.55;;
13795;SDS011;40911;51.552;9.874;2023-01-23T12:10:08;24.48;;;14.35;;
13795;SDS011;40911;51.552;9.874;2023-01-23T12:13:02;24.17;;;14.15;;
13795;SDS011;40911;51.552;9.874;2023-01-23T12:15:37;26.70;;;14.25;;
13795;SDS011;40911;51.552;9.874;2023-01-23T12:18:06;23.38;;;14.43;;
13795;SDS011;40911;51.552;9.874;2023-01-23T12:20:42;26.27;;;14.48;;
13795;SDS011;40911;51.552;9.874;2023-01-23T12:23:21;23.05;;;14.10;;
13795;SDS011;40911;51.552;9.874;2023-01-23T12:25:51;26.17;;;13.85;;
13795;SDS011;40911;51.552;9.874;2023-01-23T12:28:23;24.33;;;13.38;;
13795;SDS011;40911;51.552;9.874;2023-01-23T12:31:23;22.67;;;12.60;;
13795;SDS011;40911;51.552;9.874;2023-01-23T12:33:59;25.88;;;13.95;;
13795;SDS011;40911;51.552;9.874;2023-01-23T12:36:38;25.25;;;13.90;;
13795;SDS011;40911;51.552;9.874;2023-01-23T12:39:15;24.83;;;13.85;;
13795;SDS011;40911;51.552;9.874;2023-01-23T12:41:46;23.58;;;13.10;;
13795;SDS011;40911;51.552;9.874;2023-01-23T12:44:13;22.55;;;13.55;;
13795;SDS011;40911;51.552;9.874;2023-01-23T12:46:38;20.92;;;13.48;;
13795;SDS011;40911;51.552;9.874;2023-01-23T12:49:04;27.63;;;15.40;;
13795;SDS011;40911;51.552;9.874;2023-01-23T12:51:46;27.95;;;14.77;;
13795;SDS011;40911;51.552;9.874;2023-01-23T12:54:15;27.27;;;14.68;;
13795;SDS011;40911;51.552;9.874;2023-01-23T12:56:48;31.02;;;16.33;;
13795;SDS011;40911;51.552;9.874;2023-01-23T12:59:10;28.20;;;15.25;;
13795;SDS011;40911;51.552;9.874;2023-01-23T13:01:47;23.88;;;13.40;;
13795;SDS011;40911;51.552;9.874;2023-01-23T13:04:18;24.95;;;13.98;;
13795;SDS011;40911;51.552;9.874;2023-01-23T13:07:07;22.50;;;12.90;;
13795;SDS011;40911;51.552;9.874;2023-01-23T13:09:37;25.65;;;13.40;;
13795;SDS011;40911;51.552;9.874;2023-01-23T13:12:09;24.27;;;13.80;;
13795;SDS011;40911;51.552;9.874;2023-01-23T13:14:38;22.08;;;12.18;;
13795;SDS011;40911;51.552;9.874;2023-01-23T13:17:24;25.85;;;13.55;;
13795;SDS011;40911;51.552;9.874;2023-01-23T13:19:49;23.80;;;14.13;;
13795;SDS011;40911;51.552;9.874;2023-01-23T13:22:29;23.05;;;12.40;;
13795;SDS011;40911;51.552;9.874;2023-01-23T13:24:54;23.83;;;13.23;;
13795;SDS011;40911;51.552;9.874;2023-01-23T13:36:11;26.77;;;14.18;;
13795;SDS011;40911;51.552;9.874;2023-01-23T13:38:34;28.77;;;13.55;;
13795;SDS011;40911;51.552;9.874;2023-01-23T13:43:50;24.88;;;12.70;;
13795;SDS011;40911;51.552;9.874;2023-01-23T13:46:13;25.35;;;13.07;;
13795;SDS011;40911;51.552;9.874;2023-01-23T13:48:51;29.67;;;14.25;;
13795;SDS011;40911;51.552;9.874;2023-01-23T13:51:37;25.35;;;13.27;;
13795;SDS011;40911;51.552;9.874;2023-01-23T13:53:59;24.95;;;13.40;;
13795;SDS011;40911;51.552;9.874;2023-01-23T13:56:40;25.38;;;13.90;;
13795;SDS011;40911;51.552;9.874;2023-01-23T13:59:04;25.27;;;13.30;;
13795;SDS011;40911;51.552;9.874;2023-01-23T14:01:28;26.52;;;13.48;;
13795;SDS011;40911;51.552;9.874;2023-01-23T14:04:16;24.50;;;13.23;;
13795;SDS011;40911;51.552;9.874;2023-01-23T14:06:58;24.25;;;13.20;;
13795;SDS011;40911;51.552;9.874;2023-01-23T14:09:20;27.38;;;14.05;;
13795;SDS011;40911;51.552;9.874;2023-01-23T14:11:44;25.15;;;13.07;;
13795;SDS011;40911;51.552;9.874;2023-01-23T14:14:06;24.83;;;13.80;;
13795;SDS011;40911;51.552;9.874;2023-01-23T14:16:48;25.70;;;13.82;;
13795;SDS011;40911;51.552;9.874;2023-01-23T14:19:14;24.90;;;14.25;;
13795;SDS011;40911;51.552;9.874;2023-01-23T14:21:45;27.00;;;13.80;;
13795;SDS011;40911;51.552;9.874;2023-01-23T14:24:20;23.75;;;12.93;;
13795;SDS011;40911;51.552;9.874;2023-01-23T14:26:48;27.45;;;13.77;;
13795;SDS011;40911;51.552;9.874;2023-01-23T14:29:17;25.42;;;14.05;;
13795;SDS011;40911;51.552;9.874;2023-01-23T14:31:44;27.38;;;13.52;;
13795;SDS011;40911;51.552;9.874;2023-01-23T14:34:13;25.73;;;13.48;;
13795;SDS011;40911;51.552;9.874;2023-01-23T14:36:36;26.10;;;14.73;;
13795;SDS011;40911;51.552;9.874;2023-01-23T14:38:58;26.85;;;13.10;;
13795;SDS011;40911;51.552;9.874;2023-01-23T14:41:23;23.38;;;12.45;;
13795;SDS011;40911;51.552;9.874;2023-01-23T14:43:49;24.38;;;13.05;;
13795;SDS011;40911;51.552;9.874;2023-01-23T14:46:14;25.58;;;14.13;;
13795;SDS011;40911;51.552;9.874;2023-01-23T14:48:39;26.00;;;14.30;;
13795;SDS011;40911;51.552;9.874;2023-01-23T14:51:13;26.58;;;12.95;;
13795;SDS011;40911;51.552;9.874;2023-01-23T14:53:38;26.38;;;14.18;;
13795;SDS011;40911;51.552;9.874;2023-01-23T14:56:01;26.00;;;13.73;;
13795;SDS011;40911;51.552;9.874;2023-01-23T14:58:23;25.00;;;13.55;;
13795;SDS011;40911;51.552;9.874;2023-01-23T15:00:48;26.88;;;14.45;;
13795;SDS011;40911;51.552;9.874;2023-01-23T15:03:12;26.73;;;14.80;;